createdAt,value
2023-05-09T00:00:33.870Z,6.64
2023-05-09T00:03:21.425Z,6.59
2023-05-09T00:09:58.298Z,6.41
2023-05-09T00:16:46.049Z,6.37
2023-05-09T00:19:15.555Z,6.25
2023-05-09T00:26:04.436Z,6.34
2023-05-09T00:28:37.331Z,6.12
2023-05-09T00:31:06.419Z,5.99
2023-05-09T00:33:35.452Z,6.05
2023-05-09T00:36:04.704Z,6.20
2023-05-09T00:38:34.105Z,6.01
2023-05-09T00:41:04.739Z,6.13
2023-05-09T00:43:34.041Z,5.98
2023-05-09T00:46:03.295Z,5.83
2023-05-09T00:52:50.993Z,5.56
2023-05-09T00:55:20.186Z,5.57
2023-05-09T01:11:20.389Z,5.13
2023-05-09T01:18:11.557Z,5.16
2023-05-09T01:20:45.950Z,5.44
2023-05-09T01:27:45.579Z,5.18
2023-05-09T01:30:17.421Z,5.45
2023-05-09T01:37:08.045Z,5.38
2023-05-09T01:39:41.769Z,5.25
2023-05-09T01:42:13.731Z,5.08
2023-05-09T01:44:44.462Z,5.22
2023-05-09T01:47:16.833Z,5.17
2023-05-09T01:49:46.635Z,5.43
2023-05-09T01:52:18.802Z,5.18
2023-05-09T01:54:48.612Z,5.17
2023-05-09T01:57:18.031Z,5.41
2023-05-09T01:59:47.515Z,5.16
2023-05-09T02:02:19.324Z,5.04
2023-05-09T02:04:49.395Z,5.17
2023-05-09T02:07:18.636Z,5.01
2023-05-09T02:09:48.609Z,4.90
2023-05-09T02:12:17.603Z,4.71
2023-05-09T02:19:00.334Z,4.57
2023-05-09T02:21:29.364Z,4.72
2023-05-09T02:28:11.653Z,4.56
2023-05-09T02:30:44.834Z,4.66
2023-05-09T02:36:18.259Z,4.61
2023-05-09T02:42:53.627Z,4.13
2023-05-09T02:45:22.717Z,4.13
2023-05-09T02:47:52.773Z,4.20
2023-05-09T02:50:22.238Z,3.99
2023-05-09T02:52:52.869Z,4.13
2023-05-09T02:59:28.443Z,4.20
2023-05-09T03:01:57.671Z,3.99
2023-05-09T03:08:47.438Z,4.00
2023-05-09T03:11:16.735Z,4.17
2023-05-09T03:13:45.828Z,4.27
2023-05-09T03:16:15.292Z,4.16
2023-05-09T03:18:44.636Z,4.17
2023-05-09T03:21:13.914Z,4.18
2023-05-09T03:23:43.441Z,4.02
2023-05-09T03:26:14.066Z,4.16
2023-05-09T03:28:43.466Z,3.89
2023-05-09T03:31:13.014Z,3.82
2023-05-09T03:33:42.066Z,3.77
2023-05-09T03:36:11.557Z,3.88
2023-05-09T03:38:40.768Z,3.86
2023-05-09T03:45:30.877Z,3.93
2023-05-09T03:48:00.018Z,3.89
2023-05-09T03:54:47.632Z,4.25
2023-05-09T03:57:18.669Z,4.38
2023-05-09T04:04:20.348Z,4.44
2023-05-09T04:06:49.650Z,4.48
2023-05-09T04:09:18.975Z,4.56
2023-05-09T04:11:48.146Z,4.43
2023-05-09T04:14:17.545Z,4.44
2023-05-09T04:21:01.427Z,4.87
2023-05-09T04:23:30.610Z,4.99
2023-05-09T04:30:12.934Z,5.00
2023-05-09T04:32:46.289Z,5.32
2023-05-09T04:35:16.787Z,5.35
2023-05-09T04:42:20.074Z,5.77
2023-05-09T04:44:49.791Z,6.07
2023-05-09T04:51:36.520Z,6.29
2023-05-09T04:54:06.041Z,6.62
2023-05-09T05:00:48.353Z,7.27
2023-05-09T05:03:18.471Z,6.97
2023-05-09T05:05:48.046Z,7.07
2023-05-09T05:08:17.474Z,8.28
2023-05-09T05:10:46.774Z,8.67
2023-05-09T05:13:16.968Z,9.06
2023-05-09T05:15:48.372Z,9.50
2023-05-09T05:18:18.063Z,9.68
2023-05-09T05:20:47.659Z,9.42
2023-05-09T05:27:36.043Z,8.41
2023-05-09T05:30:05.533Z,8.21
2023-05-09T05:37:01.483Z,8.38
2023-05-09T05:39:30.575Z,8.47
2023-05-09T05:46:12.285Z,8.57
2023-05-09T05:48:41.580Z,8.59
2023-05-09T05:51:10.987Z,9.07
2023-05-09T05:53:42.028Z,10.55
2023-05-09T05:56:11.148Z,11.50
2023-05-09T06:02:48.255Z,10.21
2023-05-09T06:05:18.122Z,9.67
2023-05-09T06:12:07.941Z,8.94
2023-05-09T06:14:37.032Z,8.62
2023-05-09T06:17:06.597Z,8.13
2023-05-09T06:19:35.731Z,7.93
2023-05-09T06:22:04.727Z,8.32
2023-05-09T06:24:36.309Z,8.60
2023-05-09T06:27:11.514Z,8.93
2023-05-09T06:29:48.600Z,8.68
2023-05-09T06:32:19.332Z,8.79
2023-05-09T06:34:48.734Z,8.91
2023-05-09T06:37:18.136Z,9.10
2023-05-09T06:39:47.546Z,9.32
2023-05-09T06:42:18.470Z,9.28
2023-05-09T06:44:47.904Z,9.30
2023-05-09T06:47:17.286Z,9.72
2023-05-09T06:49:46.367Z,9.26
2023-05-09T06:52:16.182Z,9.48
2023-05-09T06:54:45.488Z,9.44
2023-05-09T06:57:15.098Z,9.65
2023-05-09T07:08:16.384Z,10.28
2023-05-09T07:10:45.583Z,10.64
2023-05-09T07:17:27.367Z,11.53
2023-05-09T07:24:23.141Z,11.44
2023-05-09T07:26:52.447Z,11.45
2023-05-09T07:33:34.370Z,10.89
2023-05-09T07:36:03.678Z,11.41
2023-05-09T07:38:33.262Z,11.02
2023-05-09T07:41:04.414Z,12.07
2023-05-09T07:43:33.804Z,11.49
2023-05-09T07:46:03.462Z,11.88
2023-05-09T07:48:32.707Z,11.77
2023-05-09T07:51:02.112Z,11.77
2023-05-09T07:53:31.926Z,11.57
2023-05-09T07:56:01.428Z,11.37
2023-05-09T07:58:32.565Z,11.80
2023-05-09T08:01:01.848Z,12.57
2023-05-09T08:03:31.154Z,12.58
2023-05-09T08:06:00.457Z,12.67
2023-05-09T08:08:29.762Z,12.94
2023-05-09T08:10:59.363Z,12.58
2023-05-09T08:13:28.820Z,13.05
2023-05-09T08:15:59.387Z,13.14
2023-05-09T08:18:28.905Z,13.35
2023-05-09T08:20:59.029Z,12.29
2023-05-09T08:23:28.228Z,12.57
2023-05-09T08:25:57.732Z,12.58
2023-05-09T08:28:29.086Z,13.22
2023-05-09T08:30:59.702Z,13.21
2023-05-09T08:33:29.218Z,13.57
2023-05-09T08:40:17.558Z,13.58
2023-05-09T08:42:47.405Z,13.45
2023-05-09T08:49:37.485Z,13.57
2023-05-09T08:52:07.415Z,13.36
2023-05-09T08:59:01.108Z,13.73
2023-05-09T09:01:31.086Z,12.95
2023-05-09T09:04:00.526Z,13.59
2023-05-09T09:06:32.586Z,13.67
2023-05-09T09:09:02.908Z,13.41
2023-05-09T09:11:32.424Z,13.52
2023-05-09T09:14:03.760Z,13.78
2023-05-09T09:16:34.629Z,14.25
2023-05-09T09:19:04.616Z,14.30
2023-05-09T09:25:49.315Z,14.14
2023-05-09T09:28:18.595Z,14.39
2023-05-09T09:35:07.276Z,14.27
2023-05-09T09:37:36.690Z,14.54
2023-05-09T09:44:20.644Z,14.66
2023-05-09T09:51:11.470Z,14.85
2023-05-09T09:53:44.248Z,15.01
2023-05-09T10:00:33.538Z,14.83
2023-05-09T10:03:03.438Z,14.76
2023-05-09T10:09:51.316Z,15.05
2023-05-09T10:16:43.628Z,15.42
2023-05-09T10:19:15.331Z,15.22
2023-05-09T10:26:08.929Z,15.69
2023-05-09T10:28:39.868Z,15.72
2023-05-09T10:35:31.297Z,15.16
2023-05-09T10:38:02.037Z,15.66
2023-05-09T10:40:33.069Z,15.59
2023-05-09T10:43:02.182Z,15.57
2023-05-09T10:45:32.284Z,15.87
2023-05-09T10:48:01.915Z,15.84
2023-05-09T10:50:33.353Z,15.66
2023-05-09T10:53:17.261Z,15.44
2023-05-09T10:55:55.673Z,15.58
2023-05-09T10:58:27.969Z,16.07
2023-05-09T11:00:59.514Z,15.85
2023-05-09T11:03:29.624Z,15.96
2023-05-09T11:06:00.993Z,16.45
2023-05-09T11:08:31.313Z,16.18
2023-05-09T11:11:07.389Z,16.78
2023-05-09T11:13:39.632Z,16.13
2023-05-09T11:16:12.967Z,16.47
2023-05-09T11:18:55.837Z,16.67
2023-05-09T11:21:26.574Z,16.37
2023-05-09T11:23:56.176Z,16.43
2023-05-09T11:26:31.313Z,16.34
2023-05-09T11:29:03.195Z,16.75
2023-05-09T11:31:32.378Z,16.37
2023-05-09T11:34:06.680Z,17.08
2023-05-09T11:36:37.521Z,16.72
2023-05-09T11:39:08.151Z,16.92
2023-05-09T11:41:45.033Z,16.46
2023-05-09T11:44:18.765Z,17.04
2023-05-09T11:46:48.966Z,16.93
2023-05-09T11:49:19.995Z,16.84
2023-05-09T11:51:50.935Z,17.17
2023-05-09T11:54:20.018Z,17.37
2023-05-09T11:56:49.836Z,17.33
2023-05-09T11:59:19.437Z,17.33
2023-05-09T12:01:50.067Z,17.49
2023-05-09T12:08:39.866Z,18.39
2023-05-09T12:11:10.496Z,18.33
2023-05-09T12:18:05.292Z,17.50
2023-05-09T12:20:48.160Z,17.81
2023-05-09T12:27:39.888Z,17.80
2023-05-09T12:30:11.133Z,18.25
2023-05-09T12:32:42.085Z,18.36
2023-05-09T12:35:12.096Z,17.78
2023-05-09T12:37:41.172Z,17.52
2023-05-09T12:40:13.274Z,17.82
2023-05-09T12:42:46.437Z,18.06
2023-05-09T12:45:16.503Z,18.38
2023-05-09T12:47:45.691Z,18.22
2023-05-09T12:50:15.143Z,18.85
2023-05-09T12:52:54.637Z,18.47
2023-05-09T12:55:33.407Z,18.58
2023-05-09T12:58:05.055Z,18.13
2023-05-09T13:00:45.155Z,18.12
2023-05-09T13:03:25.603Z,18.17
2023-05-09T13:05:59.785Z,17.75
2023-05-09T13:12:22.957Z,17.36
2023-05-09T13:19:12.047Z,17.64
2023-05-09T13:21:41.569Z,17.97
2023-05-09T13:28:29.325Z,17.52
2023-05-09T13:30:59.614Z,17.75
2023-05-09T13:33:29.345Z,18.22
2023-05-09T13:36:00.294Z,18.09
2023-05-09T13:38:31.420Z,17.44
2023-05-09T13:41:01.102Z,17.44
2023-05-09T13:43:30.840Z,17.68
2023-05-09T13:46:00.056Z,17.81
2023-05-09T13:48:29.439Z,17.78
2023-05-09T13:51:01.619Z,17.92
2023-05-09T13:53:31.716Z,17.61
2023-05-09T13:56:01.227Z,18.21
2023-05-09T13:58:30.623Z,18.13
2023-05-09T14:00:59.520Z,18.05
2023-05-09T14:03:32.159Z,17.98
2023-05-09T14:06:04.412Z,18.78
2023-05-09T14:08:33.862Z,18.91
2023-05-09T14:11:03.487Z,19.06
2023-05-09T14:13:32.960Z,18.20
2023-05-09T14:16:02.326Z,17.99
2023-05-09T14:18:31.785Z,17.97
2023-05-09T14:21:02.504Z,18.47
2023-05-09T14:23:31.605Z,18.39
2023-05-09T14:26:01.207Z,18.47
2023-05-09T14:28:30.398Z,18.19
2023-05-09T14:30:59.603Z,17.96
2023-05-09T14:33:29.612Z,18.63
2023-05-09T14:35:59.220Z,18.42
2023-05-09T14:38:29.850Z,18.06
2023-05-09T14:40:59.255Z,17.92
2023-05-09T14:43:28.857Z,17.98
2023-05-09T14:45:58.266Z,17.80
2023-05-09T14:48:27.664Z,17.93
2023-05-09T14:50:59.019Z,17.91
2023-05-09T14:53:30.562Z,17.54
2023-05-09T15:00:21.232Z,18.07
2023-05-09T15:02:51.645Z,17.81
2023-05-09T15:09:41.109Z,18.50
2023-05-09T15:12:11.120Z,17.73
2023-05-09T15:18:59.181Z,17.62
2023-05-09T15:21:29.811Z,17.72
2023-05-09T15:23:59.423Z,17.46
2023-05-09T15:30:55.401Z,17.66
2023-05-09T15:33:24.966Z,17.77
2023-05-09T15:40:07.013Z,17.58
2023-05-09T15:42:37.626Z,17.59
2023-05-09T15:49:26.920Z,17.64
2023-05-09T15:51:56.008Z,17.70
2023-05-09T15:54:26.742Z,17.49
2023-05-09T16:01:08.716Z,17.75
2023-05-09T16:03:38.252Z,17.19
2023-05-09T16:10:15.068Z,17.88
2023-05-09T16:12:47.479Z,17.95
2023-05-09T16:19:41.238Z,17.71
2023-05-09T16:22:10.745Z,17.73
2023-05-09T16:24:39.845Z,17.95
2023-05-09T16:27:10.977Z,18.18
2023-05-09T16:29:40.071Z,19.02
2023-05-09T16:32:09.823Z,19.17
2023-05-09T16:34:39.385Z,19.82
2023-05-09T16:37:08.683Z,19.22
2023-05-09T16:39:37.900Z,18.75
2023-05-09T16:46:21.027Z,20.30
2023-05-09T16:48:53.091Z,19.38
2023-05-09T16:55:34.308Z,18.96
2023-05-09T16:58:03.922Z,17.99
2023-05-09T17:00:33.199Z,18.03
2023-05-09T17:03:03.833Z,17.38
2023-05-09T17:05:33.640Z,16.03
2023-05-09T17:08:06.727Z,15.58
2023-05-09T17:10:38.127Z,15.37
2023-05-09T17:13:09.071Z,15.25
2023-05-09T17:15:38.822Z,15.13
2023-05-09T17:18:09.585Z,14.98
2023-05-09T17:20:38.754Z,14.87
2023-05-09T17:23:07.953Z,14.82
2023-05-09T17:25:36.948Z,14.62
2023-05-09T17:28:05.933Z,14.56
2023-05-09T17:30:35.017Z,14.48
2023-05-09T17:37:23.778Z,14.28
2023-05-09T17:39:53.104Z,14.19
2023-05-09T17:46:41.427Z,14.20
2023-05-09T17:49:11.589Z,14.12
2023-05-09T17:56:01.941Z,13.81
2023-05-09T18:02:44.108Z,13.58
2023-05-09T18:05:13.432Z,13.57
2023-05-09T18:11:56.687Z,13.39
2023-05-09T18:14:26.389Z,13.29
2023-05-09T18:16:55.601Z,13.22
2023-05-09T18:19:24.891Z,13.15
2023-05-09T18:21:54.910Z,13.17
2023-05-09T18:24:24.615Z,13.23
2023-05-09T18:26:54.349Z,13.21
2023-05-09T18:29:25.053Z,13.12
2023-05-09T18:31:54.276Z,13.05
2023-05-09T18:34:23.324Z,13.01
2023-05-09T18:36:52.929Z,13.06
2023-05-09T18:43:34.662Z,12.71
2023-05-09T18:46:05.701Z,12.86
2023-05-09T18:52:46.393Z,12.64
2023-05-09T18:55:15.900Z,12.55
2023-05-09T19:01:54.436Z,12.42
2023-05-09T19:08:49.061Z,12.32
2023-05-09T19:11:18.259Z,12.29
2023-05-09T19:18:00.588Z,12.01
2023-05-09T19:20:30.279Z,11.96
2023-05-09T19:22:59.478Z,11.93
2023-05-09T19:25:30.726Z,11.79
2023-05-09T19:28:00.155Z,11.70
2023-05-09T19:30:31.585Z,11.72
2023-05-09T19:33:03.474Z,11.66
2023-05-09T19:35:33.761Z,11.49
2023-05-09T19:38:02.645Z,11.61
2023-05-09T19:40:32.133Z,11.56
2023-05-09T19:43:01.452Z,11.49
2023-05-09T19:45:31.364Z,11.39
2023-05-09T19:48:02.542Z,11.22
2023-05-09T19:50:32.009Z,10.98
2023-05-09T19:53:01.429Z,10.81
2023-05-09T19:59:43.229Z,10.78
2023-05-09T20:02:13.341Z,10.77
2023-05-09T20:08:56.599Z,10.38
2023-05-09T20:11:26.305Z,10.38
2023-05-09T20:13:56.078Z,10.33
2023-05-09T20:16:26.269Z,10.31
2023-05-09T20:18:55.848Z,10.13
2023-05-09T20:21:27.489Z,10.18
2023-05-09T20:23:58.515Z,9.85
2023-05-09T20:26:28.444Z,9.74
2023-05-09T20:29:01.612Z,9.64
2023-05-09T20:31:31.059Z,9.62
2023-05-09T20:34:00.643Z,9.44
2023-05-09T20:36:30.476Z,9.35
2023-05-09T20:39:04.787Z,9.33
2023-05-09T20:41:35.625Z,9.27
2023-05-09T20:44:05.012Z,9.29
2023-05-09T20:46:34.525Z,9.29
2023-05-09T20:49:04.631Z,9.17
2023-05-09T20:51:34.031Z,9.13
2023-05-09T20:54:04.762Z,8.99
2023-05-09T21:00:52.440Z,9.14
2023-05-09T21:03:22.907Z,9.07
2023-05-09T21:10:12.464Z,9.17
2023-05-09T21:12:41.670Z,9.17
2023-05-09T21:19:30.520Z,8.76
2023-05-09T21:22:00.330Z,8.80
2023-05-09T21:24:29.630Z,8.77
2023-05-09T21:27:00.476Z,8.71
2023-05-09T21:29:29.560Z,8.66
2023-05-09T21:31:58.752Z,8.58
2023-05-09T21:34:29.080Z,8.79
2023-05-09T21:41:22.809Z,9.02
2023-05-09T21:43:53.405Z,9.02
2023-05-09T21:50:34.291Z,8.68
2023-05-09T21:53:04.105Z,8.53
2023-05-09T21:59:47.049Z,8.47
2023-05-09T22:02:16.273Z,8.44
2023-05-09T22:04:46.265Z,8.34
2023-05-09T22:11:34.329Z,8.48
2023-05-09T22:14:03.730Z,8.31
2023-05-09T22:27:59.308Z,7.52
2023-05-09T22:30:28.612Z,7.41
2023-05-09T22:37:17.285Z,7.38
2023-05-09T22:39:46.692Z,7.41
2023-05-09T22:46:33.827Z,7.50
2023-05-09T22:49:03.027Z,7.63
2023-05-09T22:55:58.267Z,7.01
2023-05-09T23:02:46.624Z,7.29
2023-05-09T23:05:16.547Z,7.19
2023-05-09T23:12:01.633Z,7.03
2023-05-09T23:14:31.046Z,6.96
2023-05-09T23:21:12.750Z,6.97
2023-05-09T23:23:41.947Z,6.98
2023-05-09T23:26:11.975Z,6.84
2023-05-09T23:33:02.833Z,6.46
2023-05-09T23:35:32.404Z,6.32
2023-05-09T23:42:26.399Z,6.19
2023-05-09T23:44:55.582Z,6.41
2023-05-09T23:51:44.904Z,6.03
2023-05-09T23:54:14.081Z,5.94
2023-05-09T23:56:43.526Z,5.82
2023-05-09T23:59:12.780Z,5.84
